createdAt,value
2018-09-20T00:00:41.408Z,4.87
2018-09-20T00:03:09.972Z,5.65
2018-09-20T00:05:38.518Z,5.28
2018-09-20T00:08:07.064Z,4.70
2018-09-20T00:10:35.549Z,4.85
2018-09-20T00:13:04.014Z,5.03
2018-09-20T00:15:32.515Z,5.05
2018-09-20T00:18:01.084Z,5.05
2018-09-20T00:20:29.664Z,5.17
2018-09-20T00:22:58.163Z,5.22
2018-09-20T00:25:26.656Z,5.20
2018-09-20T00:27:55.175Z,5.37
2018-09-20T00:30:23.756Z,5.20
2018-09-20T00:32:52.337Z,5.20
2018-09-20T00:35:20.871Z,4.60
2018-09-20T00:37:49.420Z,5.40
2018-09-20T00:40:18.018Z,5.22
2018-09-20T00:42:46.590Z,5.33
2018-09-20T00:45:15.092Z,5.62
2018-09-20T00:47:43.606Z,5.90
2018-09-20T00:50:12.117Z,5.42
2018-09-20T00:52:40.648Z,5.30
2018-09-20T00:55:09.232Z,5.53
2018-09-20T00:57:37.803Z,5.00
2018-09-20T01:00:06.375Z,6.42
2018-09-20T01:02:34.978Z,5.60
2018-09-20T01:05:03.708Z,5.47
2018-09-20T01:07:32.280Z,5.35
2018-09-20T01:10:00.904Z,5.37
2018-09-20T01:12:29.471Z,6.00
2018-09-20T01:14:58.054Z,6.65
2018-09-20T01:17:26.564Z,6.00
2018-09-20T01:19:55.082Z,5.87
2018-09-20T01:22:23.578Z,6.20
2018-09-20T01:24:52.141Z,6.03
2018-09-20T01:27:20.669Z,7.17
2018-09-20T01:29:49.209Z,6.80
2018-09-20T01:32:17.900Z,5.87
2018-09-20T01:34:46.447Z,5.72
2018-09-20T01:37:15.011Z,5.55
2018-09-20T01:39:43.581Z,6.60
2018-09-20T01:42:12.087Z,6.03
2018-09-20T01:44:40.648Z,5.75
2018-09-20T01:47:09.227Z,5.60
2018-09-20T01:49:37.745Z,5.60
2018-09-20T01:52:06.298Z,6.35
2018-09-20T01:54:34.899Z,6.65
2018-09-20T01:57:03.461Z,6.37
2018-09-20T01:59:31.947Z,5.92
2018-09-20T02:02:00.608Z,6.72
2018-09-20T02:04:29.191Z,6.15
2018-09-20T02:06:57.831Z,6.40
2018-09-20T02:09:26.443Z,5.90
2018-09-20T02:11:54.986Z,5.92
2018-09-20T02:14:23.594Z,5.85
2018-09-20T02:16:52.117Z,6.75
2018-09-20T02:19:20.782Z,6.22
2018-09-20T02:21:49.350Z,5.62
2018-09-20T02:24:17.887Z,5.83
2018-09-20T02:26:46.424Z,6.70
2018-09-20T02:29:15.049Z,6.28
2018-09-20T02:31:44.349Z,6.40
2018-09-20T02:34:12.997Z,6.10
2018-09-20T02:36:41.463Z,6.12
2018-09-20T02:39:10.004Z,5.95
2018-09-20T02:41:38.578Z,6.25
2018-09-20T02:44:07.103Z,5.75
2018-09-20T02:46:35.653Z,5.80
2018-09-20T02:49:04.195Z,6.03
2018-09-20T02:51:32.779Z,6.00
2018-09-20T02:54:01.403Z,6.22
2018-09-20T02:56:29.897Z,5.92
2018-09-20T02:58:58.540Z,6.05
2018-09-20T03:01:27.066Z,6.00
2018-09-20T03:03:55.642Z,6.17
2018-09-20T03:06:24.229Z,6.15
2018-09-20T03:08:52.830Z,6.60
2018-09-20T03:11:21.438Z,5.85
2018-09-20T03:13:50.011Z,6.25
2018-09-20T03:16:18.558Z,5.83
2018-09-20T03:18:47.141Z,6.78
2018-09-20T03:21:15.739Z,6.67
2018-09-20T03:23:44.295Z,6.20
2018-09-20T03:26:12.821Z,5.83
2018-09-20T03:28:41.361Z,6.37
2018-09-20T03:31:10.596Z,6.70
2018-09-20T03:33:39.148Z,6.25
2018-09-20T03:36:07.798Z,6.10
2018-09-20T03:38:36.354Z,6.20
2018-09-20T03:41:04.949Z,6.92
2018-09-20T03:43:33.532Z,6.72
2018-09-20T03:46:02.189Z,5.83
2018-09-20T03:48:30.770Z,6.22
2018-09-20T03:50:59.394Z,6.95
2018-09-20T03:53:28.295Z,6.55
2018-09-20T03:55:56.911Z,6.90
2018-09-20T03:58:25.519Z,7.03
2018-09-20T04:00:54.073Z,6.78
2018-09-20T04:03:22.720Z,6.58
2018-09-20T04:05:51.332Z,6.67
2018-09-20T04:08:19.844Z,6.67
2018-09-20T04:10:48.404Z,6.90
2018-09-20T04:13:16.954Z,6.97
2018-09-20T04:15:45.650Z,6.33
2018-09-20T04:18:14.313Z,6.67
2018-09-20T04:20:43.061Z,6.72
2018-09-20T04:23:11.643Z,7.00
2018-09-20T04:25:40.185Z,6.72
2018-09-20T04:28:08.783Z,6.50
2018-09-20T04:30:37.364Z,7.35
2018-09-20T04:33:06.032Z,6.70
2018-09-20T04:35:35.281Z,7.03
2018-09-20T04:38:06.858Z,7.03
2018-09-20T04:40:35.376Z,7.65
2018-09-20T04:43:04.043Z,7.22
2018-09-20T04:45:32.618Z,7.17
2018-09-20T04:48:01.100Z,7.30
2018-09-20T04:50:29.726Z,7.85
2018-09-20T04:52:58.278Z,6.67
2018-09-20T04:55:26.894Z,7.62
2018-09-20T04:57:55.452Z,6.70
2018-09-20T05:00:23.997Z,7.37
2018-09-20T05:02:52.557Z,7.40
2018-09-20T05:05:21.183Z,7.17
2018-09-20T05:07:49.706Z,7.20
2018-09-20T05:10:18.270Z,7.03
2018-09-20T05:12:47.076Z,8.08
2018-09-20T05:15:15.726Z,8.20
2018-09-20T05:17:44.263Z,7.67
2018-09-20T05:20:12.865Z,7.67
2018-09-20T05:22:41.371Z,7.03
2018-09-20T05:25:09.967Z,6.60
2018-09-20T05:27:38.482Z,8.00
2018-09-20T05:30:07.574Z,7.33
2018-09-20T05:32:36.172Z,7.45
2018-09-20T05:35:04.815Z,7.20
2018-09-20T05:37:33.329Z,7.78
2018-09-20T05:40:02.006Z,7.25
2018-09-20T05:42:30.681Z,7.25
2018-09-20T05:46:28.766Z,8.03
2018-09-20T05:48:57.303Z,6.80
2018-09-20T05:51:25.954Z,7.35
2018-09-20T05:53:55.816Z,7.22
2018-09-20T05:56:24.296Z,7.03
2018-09-20T05:58:53.119Z,6.80
2018-09-20T06:01:21.711Z,7.72
2018-09-20T06:03:50.273Z,7.45
2018-09-20T06:06:18.954Z,7.50
2018-09-20T06:08:47.599Z,7.87
2018-09-20T06:11:16.278Z,7.87
2018-09-20T06:13:44.938Z,7.53
2018-09-20T06:16:13.495Z,6.83
2018-09-20T06:18:42.074Z,7.25
2018-09-20T06:21:10.679Z,7.17
2018-09-20T06:23:39.253Z,7.47
2018-09-20T06:26:07.823Z,7.05
2018-09-20T06:28:36.408Z,7.55
2018-09-20T06:31:05.096Z,7.22
2018-09-20T06:33:33.711Z,7.42
2018-09-20T06:36:02.395Z,7.87
2018-09-20T06:38:30.951Z,7.40
2018-09-20T06:40:59.710Z,6.72
2018-09-20T06:43:28.199Z,6.92
2018-09-20T06:45:57.167Z,6.80
2018-09-20T06:48:25.711Z,7.12
2018-09-20T06:50:55.104Z,7.37
2018-09-20T06:53:23.806Z,7.60
2018-09-20T06:55:52.371Z,6.85
2018-09-20T06:58:22.213Z,7.10
2018-09-20T07:00:50.892Z,6.85
2018-09-20T07:03:19.708Z,7.17
2018-09-20T07:05:48.380Z,8.20
2018-09-20T07:08:16.947Z,7.03
2018-09-20T07:10:45.615Z,7.25
2018-09-20T07:13:14.232Z,7.25
2018-09-20T07:15:42.939Z,6.78
2018-09-20T07:18:11.671Z,7.00
2018-09-20T07:20:40.473Z,7.40
2018-09-20T07:23:09.115Z,6.75
2018-09-20T07:25:37.740Z,6.75
2018-09-20T07:28:06.320Z,7.35
2018-09-20T07:30:34.988Z,7.28
2018-09-20T07:33:03.779Z,6.42
2018-09-20T07:35:32.502Z,6.65
2018-09-20T07:38:01.279Z,7.83
2018-09-20T07:40:29.923Z,6.37
2018-09-20T07:42:58.430Z,6.33
2018-09-20T07:45:28.174Z,6.83
2018-09-20T07:47:57.923Z,5.78
2018-09-20T07:50:26.605Z,6.12
2018-09-20T07:52:55.496Z,5.90
2018-09-20T07:55:24.329Z,6.20
2018-09-20T07:57:53.044Z,6.22
2018-09-20T08:00:21.596Z,6.12
2018-09-20T08:02:50.161Z,5.70
2018-09-20T08:05:18.794Z,5.97
2018-09-20T08:07:47.361Z,5.95
2018-09-20T08:10:16.145Z,6.08
2018-09-20T08:12:44.774Z,5.45
2018-09-20T08:15:13.324Z,6.58
2018-09-20T08:17:41.923Z,5.90
2018-09-20T08:20:10.423Z,6.05
2018-09-20T08:22:39.292Z,5.35
2018-09-20T08:25:08.016Z,5.60
2018-09-20T08:27:36.765Z,5.90
2018-09-20T08:30:06.794Z,5.60
2018-09-20T08:33:06.442Z,5.35
2018-09-20T08:35:35.026Z,5.28
2018-09-20T08:38:03.669Z,5.87
2018-09-20T08:40:32.204Z,5.45
2018-09-20T08:43:00.904Z,5.87
2018-09-20T08:45:29.493Z,5.35
2018-09-20T08:47:57.984Z,5.42
2018-09-20T08:50:26.684Z,6.05
2018-09-20T08:52:55.430Z,5.92
2018-09-20T08:55:24.140Z,5.42
2018-09-20T08:57:55.535Z,6.05
2018-09-20T09:00:24.499Z,5.70
2018-09-20T09:02:53.153Z,5.45
2018-09-20T09:05:21.856Z,4.95
2018-09-20T09:07:50.382Z,5.65
2018-09-20T09:10:18.952Z,6.03
2018-09-20T09:12:47.505Z,5.50
2018-09-20T09:15:16.117Z,6.05
2018-09-20T09:17:44.710Z,5.60
2018-09-20T09:20:13.315Z,5.62
2018-09-20T09:22:41.884Z,5.45
2018-09-20T09:25:10.443Z,5.53
2018-09-20T09:27:38.988Z,5.60
2018-09-20T09:30:07.570Z,5.15
2018-09-20T09:32:36.112Z,5.00
2018-09-20T09:35:04.657Z,5.30
2018-09-20T09:37:33.263Z,4.67
2018-09-20T09:40:01.806Z,4.08
2018-09-20T09:42:30.372Z,4.37
2018-09-20T09:44:58.857Z,4.35
2018-09-20T09:47:27.384Z,4.35
2018-09-20T09:49:55.896Z,4.35
2018-09-20T09:52:24.422Z,3.90
2018-09-20T09:54:53.020Z,3.70
2018-09-20T09:57:21.499Z,3.58
2018-09-20T09:59:50.060Z,4.10
2018-09-20T10:02:19.283Z,4.25
2018-09-20T10:04:47.842Z,4.00
2018-09-20T10:07:16.474Z,3.77
2018-09-20T10:09:44.981Z,3.80
2018-09-20T10:12:13.543Z,4.00
2018-09-20T10:14:42.038Z,3.65
2018-09-20T10:17:10.578Z,3.90
2018-09-20T10:19:39.118Z,3.15
2018-09-20T10:22:07.652Z,3.90
2018-09-20T10:24:36.205Z,3.25
2018-09-20T10:27:04.728Z,3.75
2018-09-20T10:29:33.279Z,3.05
2018-09-20T10:32:01.849Z,3.50
2018-09-20T10:34:30.450Z,3.40
2018-09-20T10:36:59.047Z,3.62
2018-09-20T10:39:29.699Z,3.30
2018-09-20T10:41:58.234Z,3.75
2018-09-20T10:44:26.801Z,3.52
2018-09-20T10:46:55.382Z,3.35
2018-09-20T10:49:23.925Z,3.52
2018-09-20T10:51:52.489Z,3.17
2018-09-20T10:54:20.991Z,3.45
2018-09-20T10:56:49.549Z,3.67
2018-09-20T10:59:18.052Z,3.72
2018-09-20T11:01:46.615Z,3.42
2018-09-20T11:04:15.221Z,3.62
2018-09-20T11:06:43.771Z,3.70
2018-09-20T11:09:12.344Z,3.02
2018-09-20T11:11:40.908Z,3.98
2018-09-20T11:14:09.506Z,3.25
2018-09-20T11:16:38.802Z,3.05
2018-09-20T11:19:07.451Z,3.15
2018-09-20T11:21:36.085Z,3.25
2018-09-20T11:24:04.716Z,3.67
2018-09-20T11:26:33.985Z,3.45
2018-09-20T11:29:02.773Z,3.15
2018-09-20T11:31:31.247Z,3.27
2018-09-20T11:33:59.788Z,3.77
2018-09-20T11:36:28.313Z,3.22
2018-09-20T11:38:56.857Z,2.90
2018-09-20T11:41:25.525Z,3.22
2018-09-20T11:43:54.055Z,3.55
2018-09-20T11:46:22.586Z,3.62
2018-09-20T11:48:51.091Z,3.83
2018-09-20T11:51:19.607Z,3.42
2018-09-20T11:53:48.169Z,3.62
2018-09-20T11:56:17.583Z,3.10
2018-09-20T11:58:46.215Z,3.40
2018-09-20T12:01:14.761Z,3.20
2018-09-20T12:03:43.324Z,3.12
2018-09-20T12:06:11.929Z,4.05
2018-09-20T12:08:40.440Z,3.02
2018-09-20T12:11:09.014Z,3.25
2018-09-20T12:13:38.031Z,3.50
2018-09-20T12:16:06.610Z,3.00
2018-09-20T12:18:35.126Z,3.27
2018-09-20T12:21:03.645Z,3.20
2018-09-20T12:23:32.462Z,3.00
2018-09-20T12:26:01.138Z,3.30
2018-09-20T12:28:29.632Z,3.35
2018-09-20T12:30:58.209Z,3.27
2018-09-20T12:33:26.763Z,3.65
2018-09-20T12:35:55.390Z,3.42
2018-09-20T12:38:23.876Z,3.15
2018-09-20T12:40:52.431Z,3.33
2018-09-20T12:43:21.001Z,2.95
2018-09-20T12:45:49.554Z,3.40
2018-09-20T12:48:18.125Z,3.15
2018-09-20T12:50:46.643Z,3.20
2018-09-20T12:53:15.142Z,3.62
2018-09-20T12:55:43.688Z,3.27
2018-09-20T12:58:12.181Z,3.05
2018-09-20T13:00:40.809Z,3.08
2018-09-20T13:03:09.309Z,3.60
2018-09-20T13:05:37.830Z,2.85
2018-09-20T13:08:06.332Z,3.50
2018-09-20T13:10:34.891Z,2.87
2018-09-20T13:13:03.466Z,3.27
2018-09-20T13:15:32.358Z,3.27
2018-09-20T13:18:00.846Z,2.70
2018-09-20T13:20:29.402Z,3.33
2018-09-20T13:22:57.928Z,2.95
2018-09-20T13:25:26.595Z,2.90
2018-09-20T13:27:55.045Z,2.85
2018-09-20T13:30:23.583Z,2.98
2018-09-20T13:32:52.130Z,3.20
2018-09-20T13:35:20.657Z,2.58
2018-09-20T13:37:49.223Z,3.05
2018-09-20T13:40:17.801Z,3.15
2018-09-20T13:42:46.365Z,2.77
2018-09-20T13:45:14.520Z,2.70
2018-09-20T13:47:43.069Z,2.92
2018-09-20T13:50:11.625Z,3.27
2018-09-20T13:52:40.678Z,3.40
2018-09-20T13:55:09.008Z,3.10
2018-09-20T13:57:37.548Z,3.25
2018-09-20T14:00:06.883Z,4.12
2018-09-20T14:02:35.465Z,4.50
2018-09-20T14:05:04.137Z,4.85
2018-09-20T14:07:32.311Z,5.28
2018-09-20T14:10:00.876Z,5.20
2018-09-20T14:12:29.374Z,5.65
2018-09-20T14:14:59.269Z,6.90
2018-09-20T14:17:27.853Z,6.95
2018-09-20T14:19:57.163Z,7.67
2018-09-20T14:22:25.708Z,7.37
2018-09-20T14:24:54.297Z,6.15
2018-09-20T14:27:22.803Z,6.10
2018-09-20T14:29:51.305Z,7.05
2018-09-20T14:32:19.840Z,6.65
2018-09-20T14:34:48.401Z,5.97
2018-09-20T14:37:16.955Z,6.75
2018-09-20T14:39:45.518Z,6.50
2018-09-20T14:42:14.099Z,6.37
2018-09-20T14:44:42.636Z,6.67
2018-09-20T14:47:11.221Z,6.05
2018-09-20T14:49:39.715Z,6.28
2018-09-20T14:52:08.227Z,7.10
2018-09-20T14:54:36.726Z,6.33
2018-09-20T14:57:05.265Z,5.17
2018-09-20T14:59:33.813Z,4.70
2018-09-20T15:02:03.137Z,4.95
2018-09-20T15:04:31.698Z,4.65
2018-09-20T15:07:00.246Z,4.95
2018-09-20T15:09:28.755Z,4.85
2018-09-20T15:11:57.319Z,4.08
2018-09-20T15:14:25.857Z,3.52
2018-09-20T15:16:54.393Z,2.85
2018-09-20T15:19:22.923Z,3.10
2018-09-20T15:21:51.406Z,2.60
2018-09-20T15:24:19.924Z,2.77
2018-09-20T15:26:48.430Z,2.87
2018-09-20T15:29:17.022Z,3.10
2018-09-20T15:31:45.527Z,3.35
2018-09-20T15:34:14.022Z,4.47
2018-09-20T15:36:42.551Z,4.05
2018-09-20T15:39:12.232Z,3.98
2018-09-20T15:41:41.024Z,4.15
2018-09-20T15:44:10.224Z,4.20
2018-09-20T15:46:38.719Z,4.00
2018-09-20T15:49:07.242Z,3.70
2018-09-20T15:51:35.797Z,3.30
2018-09-20T15:54:04.355Z,3.58
2018-09-20T15:56:32.904Z,3.45
2018-09-20T15:59:01.398Z,3.00
2018-09-20T16:01:29.954Z,3.33
2018-09-20T16:03:58.559Z,3.27
2018-09-20T16:06:27.589Z,3.27
2018-09-20T16:08:56.062Z,3.05
2018-09-20T16:11:24.556Z,3.12
2018-09-20T16:13:53.088Z,3.17
2018-09-20T16:16:21.635Z,2.62
2018-09-20T16:18:50.360Z,2.55
2018-09-20T16:21:18.858Z,2.67
2018-09-20T16:23:47.439Z,3.10
2018-09-20T16:26:15.976Z,3.00
2018-09-20T16:28:56.779Z,2.45
2018-09-20T16:37:06.185Z,2.67
2018-09-20T16:39:36.189Z,3.00
2018-09-20T16:42:05.668Z,2.87
2018-09-20T16:44:34.169Z,2.85
2018-09-20T16:47:02.682Z,3.00
2018-09-20T16:49:31.199Z,3.02
2018-09-20T16:51:59.762Z,2.90
2018-09-20T16:54:28.324Z,3.62
2018-09-20T16:56:56.800Z,2.85
2018-09-20T16:59:25.318Z,2.83
2018-09-20T17:01:53.849Z,2.98
2018-09-20T17:04:22.479Z,2.85
2018-09-20T17:06:51.075Z,2.92
2018-09-20T17:09:19.655Z,3.60
2018-09-20T17:11:48.157Z,2.83
2018-09-20T17:14:16.697Z,2.77
2018-09-20T17:16:45.276Z,3.10
2018-09-20T17:19:13.781Z,3.00
2018-09-20T17:21:42.310Z,3.20
2018-09-20T17:24:10.866Z,3.20
2018-09-20T17:26:39.340Z,3.15
2018-09-20T17:29:07.831Z,3.90
2018-09-20T17:31:36.320Z,3.37
2018-09-20T17:34:04.818Z,3.55
2018-09-20T17:36:33.841Z,3.90
2018-09-20T17:39:03.174Z,4.15
2018-09-20T17:41:34.001Z,4.00
2018-09-20T17:44:05.309Z,3.72
2018-09-20T17:46:33.789Z,3.60
2018-09-20T17:49:02.357Z,3.50
2018-09-20T17:51:31.141Z,3.42
2018-09-20T17:54:00.120Z,4.45
2018-09-20T17:56:29.073Z,4.03
2018-09-20T17:58:57.962Z,3.90
2018-09-20T18:01:26.456Z,3.80
2018-09-20T18:03:54.975Z,3.85
2018-09-20T18:06:23.534Z,3.95
2018-09-20T18:08:52.008Z,4.42
2018-09-20T18:11:20.550Z,4.08
2018-09-20T18:13:49.122Z,3.77
2018-09-20T18:16:17.672Z,5.95
2018-09-20T18:18:46.376Z,4.85
2018-09-20T18:21:14.925Z,4.53
2018-09-20T18:23:43.463Z,4.60
2018-09-20T18:26:11.969Z,4.72
2018-09-20T18:28:40.514Z,4.30
2018-09-20T18:31:09.150Z,5.40
2018-09-20T18:33:37.677Z,4.80
2018-09-20T18:36:06.182Z,5.05
2018-09-20T18:38:34.729Z,5.12
2018-09-20T18:41:03.247Z,5.17
2018-09-20T18:43:31.818Z,5.62
2018-09-20T18:46:00.343Z,4.90
2018-09-20T18:48:28.895Z,5.05
2018-09-20T18:50:57.384Z,5.53
2018-09-20T18:53:25.965Z,5.25
2018-09-20T18:55:54.427Z,4.55
2018-09-20T18:58:22.970Z,4.35
2018-09-20T19:00:53.003Z,4.40
2018-09-20T19:03:22.453Z,4.62
2018-09-20T19:05:50.947Z,5.78
2018-09-20T19:08:19.620Z,6.12
2018-09-20T19:10:48.167Z,6.00
2018-09-20T19:13:16.718Z,6.47
2018-09-20T19:15:45.278Z,6.10
2018-09-20T19:18:14.065Z,5.55
2018-09-20T19:20:42.648Z,5.80
2018-09-20T19:23:11.198Z,5.33
2018-09-20T19:25:39.762Z,5.17
2018-09-20T19:28:09.646Z,5.22
2018-09-20T19:30:38.130Z,5.50
2018-09-20T19:33:06.629Z,4.92
2018-09-20T19:35:35.230Z,4.25
2018-09-20T19:38:03.715Z,4.47
2018-09-20T19:40:32.237Z,5.00
2018-09-20T19:43:00.732Z,4.22
2018-09-20T19:45:29.217Z,4.50
2018-09-20T19:47:57.772Z,3.92
2018-09-20T19:50:26.807Z,5.35
2018-09-20T19:52:55.326Z,4.72
2018-09-20T19:55:23.831Z,4.80
2018-09-20T19:57:52.367Z,4.53
2018-09-20T20:00:20.902Z,4.42
2018-09-20T20:02:49.428Z,3.98
2018-09-20T20:05:17.936Z,4.03
2018-09-20T20:07:47.105Z,4.33
2018-09-20T20:10:15.638Z,3.67
2018-09-20T20:12:44.143Z,4.20
2018-09-20T20:15:12.617Z,4.45
2018-09-20T20:17:41.179Z,3.72
2018-09-20T20:20:09.719Z,4.00
2018-09-20T20:22:38.213Z,3.90
2018-09-20T20:25:06.698Z,4.25
2018-09-20T20:27:35.182Z,3.50
2018-09-20T20:30:03.728Z,3.95
2018-09-20T20:32:32.267Z,3.85
2018-09-20T20:35:00.740Z,4.42
2018-09-20T20:37:29.222Z,4.33
2018-09-20T20:39:57.757Z,4.35
2018-09-20T20:42:26.277Z,4.12
2018-09-20T20:44:55.090Z,3.87
2018-09-20T20:47:23.538Z,4.17
2018-09-20T20:49:52.029Z,4.37
2018-09-20T20:52:20.704Z,4.15
2018-09-20T20:54:49.298Z,5.15
2018-09-20T20:57:17.845Z,5.15
2018-09-20T20:59:46.417Z,4.47
2018-09-20T21:02:14.943Z,5.17
2018-09-20T21:04:43.479Z,5.08
2018-09-20T21:07:12.042Z,5.12
2018-09-20T21:09:40.597Z,5.55
2018-09-20T21:12:09.194Z,5.08
2018-09-20T21:14:37.804Z,4.95
2018-09-20T21:17:06.416Z,4.37
2018-09-20T21:19:34.966Z,4.28
2018-09-20T21:22:03.543Z,4.22
2018-09-20T21:24:32.073Z,4.30
2018-09-20T21:27:00.574Z,4.35
2018-09-20T21:29:29.143Z,4.15
2018-09-20T21:31:57.760Z,4.30
2018-09-20T21:34:26.266Z,3.95
2018-09-20T21:36:54.884Z,4.45
2018-09-20T21:39:23.443Z,4.20
2018-09-20T21:41:51.994Z,4.60
2018-09-20T21:44:20.555Z,4.17
2018-09-20T21:46:49.084Z,5.05
2018-09-20T21:49:17.542Z,4.20
2018-09-20T21:51:46.092Z,4.67
2018-09-20T21:54:14.623Z,4.78
2018-09-20T21:56:43.148Z,5.00
2018-09-20T21:59:11.634Z,4.87
2018-09-20T22:01:45.590Z,4.62
2018-09-20T22:04:14.218Z,4.87
2018-09-20T22:06:42.725Z,4.70
2018-09-20T22:09:12.376Z,5.37
2018-09-20T22:11:41.230Z,4.83
2018-09-20T22:14:09.811Z,5.20
2018-09-20T22:16:38.766Z,4.97
2018-09-20T22:19:07.270Z,4.45
2018-09-20T22:21:35.789Z,5.40
2018-09-20T22:24:04.316Z,4.78
2018-09-20T22:26:32.871Z,3.58
2018-09-20T22:29:01.374Z,4.17
2018-09-20T22:31:29.889Z,3.85
2018-09-20T22:33:58.439Z,3.72
2018-09-20T22:36:26.958Z,3.50
2018-09-20T22:38:55.522Z,3.80
2018-09-20T22:41:24.239Z,3.83
2018-09-20T22:43:52.734Z,4.05
2018-09-20T22:46:21.626Z,4.15
2018-09-20T22:48:50.141Z,3.60
2018-09-20T22:51:18.617Z,4.55
2018-09-20T22:53:47.119Z,5.10
2018-09-20T22:56:16.570Z,4.58
2018-09-20T22:58:45.094Z,4.15
2018-09-20T23:01:16.806Z,4.00
2018-09-20T23:03:45.898Z,4.60
2018-09-20T23:06:14.428Z,4.40
2018-09-20T23:08:42.951Z,4.05
2018-09-20T23:11:11.493Z,3.87
2018-09-20T23:13:40.086Z,4.83
2018-09-20T23:16:08.609Z,4.00
2018-09-20T23:18:37.108Z,4.42
2018-09-20T23:21:05.697Z,4.33
2018-09-20T23:23:34.251Z,3.98
2018-09-20T23:26:02.740Z,4.37
2018-09-20T23:28:31.222Z,4.95
2018-09-20T23:30:59.709Z,4.97
2018-09-20T23:33:28.192Z,4.60
2018-09-20T23:35:56.768Z,4.30
2018-09-20T23:38:25.330Z,4.60
2018-09-20T23:40:53.905Z,4.78
2018-09-20T23:43:22.426Z,3.90
2018-09-20T23:45:50.936Z,4.70
2018-09-20T23:48:19.490Z,4.55
2018-09-20T23:50:47.977Z,4.53
2018-09-20T23:53:16.529Z,4.10
2018-09-20T23:55:45.073Z,4.00
2018-09-20T23:58:13.590Z,4.78
